Terminal Aerodrome Forecast
Issued by NWS

Home | Current Version | Previous Version | Text Only | Print | Product List | Glossary On
Versions: 1 2 3 4 5 6 7 8 9 10 11 12 13 14 15 16 17 18 19
019
FTUS43 KDLH 151741
TAFBRD
TAF
KBRD 151741Z 1518/1618 27007KT P6SM SCT050 BKN150
     FM152100 25007KT P6SM VCSH BKN060
     FM160000 26006KT P6SM BKN060
     FM160700 26003KT 5SM BR SCT150
     FM161300 22008KT P6SM FEW250=

USA.gov is the U.S. government's official web portal to all federal, state and local government web resources and services.